sensor_id;sensor_type;location;lat;lon;timestamp;P1;durP1;ratioP1;P2;durP2;ratioP2
4563;SDS011;2294;51.818;8.484;2022-11-20T00:01:27;13.93;;;6.97;;
4563;SDS011;2294;51.818;8.484;2022-11-20T00:03:55;13.47;;;7.50;;
4563;SDS011;2294;51.818;8.484;2022-11-20T00:06:23;10.70;;;7.00;;
4563;SDS011;2294;51.818;8.484;2022-11-20T00:08:53;11.07;;;7.80;;
4563;SDS011;2294;51.818;8.484;2022-11-20T00:11:21;10.80;;;6.80;;
4563;SDS011;2294;51.818;8.484;2022-11-20T00:13:50;14.07;;;8.40;;
4563;SDS011;2294;51.818;8.484;2022-11-20T00:16:18;10.30;;;6.47;;
4563;SDS011;2294;51.818;8.484;2022-11-20T00:18:48;11.47;;;6.67;;
4563;SDS011;2294;51.818;8.484;2022-11-20T00:21:16;12.67;;;7.60;;
4563;SDS011;2294;51.818;8.484;2022-11-20T00:23:44;13.63;;;7.27;;
4563;SDS011;2294;51.818;8.484;2022-11-20T00:26:12;9.27;;;5.60;;
4563;SDS011;2294;51.818;8.484;2022-11-20T00:28:41;10.93;;;7.07;;
4563;SDS011;2294;51.818;8.484;2022-11-20T00:31:10;8.53;;;5.80;;
4563;SDS011;2294;51.818;8.484;2022-11-20T00:33:38;9.77;;;6.60;;
4563;SDS011;2294;51.818;8.484;2022-11-20T00:36:08;9.80;;;6.17;;
4563;SDS011;2294;51.818;8.484;2022-11-20T00:38:36;9.23;;;6.30;;
4563;SDS011;2294;51.818;8.484;2022-11-20T00:41:04;8.17;;;6.10;;
4563;SDS011;2294;51.818;8.484;2022-11-20T00:43:32;11.23;;;5.27;;
4563;SDS011;2294;51.818;8.484;2022-11-20T00:46:00;11.77;;;6.87;;
4563;SDS011;2294;51.818;8.484;2022-11-20T00:48:27;11.20;;;6.93;;
4563;SDS011;2294;51.818;8.484;2022-11-20T00:50:54;13.17;;;7.70;;
4563;SDS011;2294;51.818;8.484;2022-11-20T00:53:23;14.37;;;8.00;;
4563;SDS011;2294;51.818;8.484;2022-11-20T00:55:53;13.00;;;6.80;;
4563;SDS011;2294;51.818;8.484;2022-11-20T00:58:22;12.07;;;7.47;;
4563;SDS011;2294;51.818;8.484;2022-11-20T01:00:49;15.03;;;7.30;;
4563;SDS011;2294;51.818;8.484;2022-11-20T01:03:17;12.13;;;6.93;;
4563;SDS011;2294;51.818;8.484;2022-11-20T01:05:44;13.43;;;8.10;;
4563;SDS011;2294;51.818;8.484;2022-11-20T01:08:11;12.60;;;7.33;;
4563;SDS011;2294;51.818;8.484;2022-11-20T01:10:39;10.37;;;6.50;;
4563;SDS011;2294;51.818;8.484;2022-11-20T01:13:06;9.33;;;5.83;;
4563;SDS011;2294;51.818;8.484;2022-11-20T01:15:50;11.27;;;5.60;;
4563;SDS011;2294;51.818;8.484;2022-11-20T01:18:17;14.47;;;8.17;;
4563;SDS011;2294;51.818;8.484;2022-11-20T01:20:44;12.10;;;7.13;;
4563;SDS011;2294;51.818;8.484;2022-11-20T01:23:11;10.43;;;6.07;;
4563;SDS011;2294;51.818;8.484;2022-11-20T01:25:39;9.03;;;5.57;;
4563;SDS011;2294;51.818;8.484;2022-11-20T01:28:06;9.47;;;6.20;;
4563;SDS011;2294;51.818;8.484;2022-11-20T01:30:33;10.80;;;5.70;;
4563;SDS011;2294;51.818;8.484;2022-11-20T01:33:00;10.13;;;6.00;;
4563;SDS011;2294;51.818;8.484;2022-11-20T01:35:27;9.67;;;5.97;;
4563;SDS011;2294;51.818;8.484;2022-11-20T01:37:54;8.93;;;5.73;;
4563;SDS011;2294;51.818;8.484;2022-11-20T01:40:20;12.17;;;5.60;;
4563;SDS011;2294;51.818;8.484;2022-11-20T01:42:52;8.07;;;5.40;;
4563;SDS011;2294;51.818;8.484;2022-11-20T01:48:28;7.80;;;6.00;;
4563;SDS011;2294;51.818;8.484;2022-11-20T01:50:59;8.50;;;5.23;;
4563;SDS011;2294;51.818;8.484;2022-11-20T01:53:28;7.87;;;5.80;;
4563;SDS011;2294;51.818;8.484;2022-11-20T01:55:58;12.50;;;7.30;;
4563;SDS011;2294;51.818;8.484;2022-11-20T01:58:30;10.83;;;5.40;;
4563;SDS011;2294;51.818;8.484;2022-11-20T02:01:00;9.10;;;6.07;;
4563;SDS011;2294;51.818;8.484;2022-11-20T02:03:27;10.80;;;6.40;;
4563;SDS011;2294;51.818;8.484;2022-11-20T02:05:55;11.37;;;6.90;;
4563;SDS011;2294;51.818;8.484;2022-11-20T02:08:27;10.93;;;6.27;;
4563;SDS011;2294;51.818;8.484;2022-11-20T02:10:54;14.70;;;7.13;;
4563;SDS011;2294;51.818;8.484;2022-11-20T02:13:21;10.30;;;5.77;;
4563;SDS011;2294;51.818;8.484;2022-11-20T02:16:09;11.77;;;6.77;;
4563;SDS011;2294;51.818;8.484;2022-11-20T02:18:48;17.23;;;6.37;;
4563;SDS011;2294;51.818;8.484;2022-11-20T02:21:21;15.53;;;5.67;;
4563;SDS011;2294;51.818;8.484;2022-11-20T02:26:45;9.67;;;5.20;;
4563;SDS011;2294;51.818;8.484;2022-11-20T02:29:17;12.03;;;5.40;;
4563;SDS011;2294;51.818;8.484;2022-11-20T02:31:49;11.67;;;6.30;;
4563;SDS011;2294;51.818;8.484;2022-11-20T02:34:17;11.23;;;6.13;;
4563;SDS011;2294;51.818;8.484;2022-11-20T02:36:44;8.80;;;5.40;;
4563;SDS011;2294;51.818;8.484;2022-11-20T02:39:15;10.77;;;6.43;;
4563;SDS011;2294;51.818;8.484;2022-11-20T02:41:42;8.27;;;5.67;;
4563;SDS011;2294;51.818;8.484;2022-11-20T02:44:09;11.00;;;6.53;;
4563;SDS011;2294;51.818;8.484;2022-11-20T02:46:36;11.90;;;6.70;;
4563;SDS011;2294;51.818;8.484;2022-11-20T02:49:03;11.33;;;6.27;;
4563;SDS011;2294;51.818;8.484;2022-11-20T02:51:31;9.60;;;5.77;;
4563;SDS011;2294;51.818;8.484;2022-11-20T02:53:58;10.93;;;6.30;;
4563;SDS011;2294;51.818;8.484;2022-11-20T02:56:26;9.00;;;5.90;;
4563;SDS011;2294;51.818;8.484;2022-11-20T02:58:54;8.97;;;6.03;;
4563;SDS011;2294;51.818;8.484;2022-11-20T03:01:21;13.63;;;5.20;;
4563;SDS011;2294;51.818;8.484;2022-11-20T03:03:48;11.70;;;5.53;;
4563;SDS011;2294;51.818;8.484;2022-11-20T03:06:15;10.60;;;6.10;;
4563;SDS011;2294;51.818;8.484;2022-11-20T03:08:42;8.17;;;5.60;;
4563;SDS011;2294;51.818;8.484;2022-11-20T03:11:09;7.77;;;5.43;;
4563;SDS011;2294;51.818;8.484;2022-11-20T03:13:38;11.03;;;6.20;;
4563;SDS011;2294;51.818;8.484;2022-11-20T03:16:08;12.20;;;7.20;;
4563;SDS011;2294;51.818;8.484;2022-11-20T03:18:36;12.97;;;7.07;;
4563;SDS011;2294;51.818;8.484;2022-11-20T03:21:03;14.60;;;7.23;;
4563;SDS011;2294;51.818;8.484;2022-11-20T03:23:31;12.77;;;7.40;;
4563;SDS011;2294;51.818;8.484;2022-11-20T03:26:08;13.47;;;6.43;;
4563;SDS011;2294;51.818;8.484;2022-11-20T03:28:38;12.57;;;7.17;;
4563;SDS011;2294;51.818;8.484;2022-11-20T03:31:06;9.57;;;7.37;;
4563;SDS011;2294;51.818;8.484;2022-11-20T03:33:34;12.50;;;6.87;;
4563;SDS011;2294;51.818;8.484;2022-11-20T03:36:02;10.97;;;6.40;;
4563;SDS011;2294;51.818;8.484;2022-11-20T03:38:29;8.40;;;6.30;;
4563;SDS011;2294;51.818;8.484;2022-11-20T03:41:00;10.27;;;6.10;;
4563;SDS011;2294;51.818;8.484;2022-11-20T03:43:28;10.17;;;5.53;;
4563;SDS011;2294;51.818;8.484;2022-11-20T03:45:57;11.50;;;7.00;;
4563;SDS011;2294;51.818;8.484;2022-11-20T03:48:24;11.20;;;6.63;;
4563;SDS011;2294;51.818;8.484;2022-11-20T03:50:51;10.43;;;6.27;;
4563;SDS011;2294;51.818;8.484;2022-11-20T03:53:18;11.53;;;7.00;;
4563;SDS011;2294;51.818;8.484;2022-11-20T03:55:49;10.80;;;6.80;;
4563;SDS011;2294;51.818;8.484;2022-11-20T03:58:17;15.87;;;7.43;;
4563;SDS011;2294;51.818;8.484;2022-11-20T04:00:44;10.03;;;7.00;;
4563;SDS011;2294;51.818;8.484;2022-11-20T04:03:12;18.40;;;6.73;;
4563;SDS011;2294;51.818;8.484;2022-11-20T04:05:39;10.90;;;6.60;;
4563;SDS011;2294;51.818;8.484;2022-11-20T04:08:06;14.63;;;6.50;;
4563;SDS011;2294;51.818;8.484;2022-11-20T04:10:33;13.80;;;6.93;;
4563;SDS011;2294;51.818;8.484;2022-11-20T04:13:00;10.37;;;6.07;;
4563;SDS011;2294;51.818;8.484;2022-11-20T04:15:27;13.53;;;7.50;;
4563;SDS011;2294;51.818;8.484;2022-11-20T04:17:54;13.17;;;6.83;;
4563;SDS011;2294;51.818;8.484;2022-11-20T04:20:22;12.57;;;6.30;;
4563;SDS011;2294;51.818;8.484;2022-11-20T04:22:51;10.03;;;6.10;;
4563;SDS011;2294;51.818;8.484;2022-11-20T04:25:19;13.33;;;6.43;;
4563;SDS011;2294;51.818;8.484;2022-11-20T04:27:46;11.77;;;6.83;;
4563;SDS011;2294;51.818;8.484;2022-11-20T04:30:13;8.40;;;6.00;;
4563;SDS011;2294;51.818;8.484;2022-11-20T04:32:40;10.60;;;6.77;;
4563;SDS011;2294;51.818;8.484;2022-11-20T04:35:07;12.00;;;7.53;;
4563;SDS011;2294;51.818;8.484;2022-11-20T04:37:35;10.17;;;6.80;;
4563;SDS011;2294;51.818;8.484;2022-11-20T04:40:02;10.00;;;6.73;;
4563;SDS011;2294;51.818;8.484;2022-11-20T04:42:30;12.03;;;5.83;;
4563;SDS011;2294;51.818;8.484;2022-11-20T04:44:57;16.53;;;7.30;;
4563;SDS011;2294;51.818;8.484;2022-11-20T04:47:24;12.10;;;6.33;;
4563;SDS011;2294;51.818;8.484;2022-11-20T04:49:51;12.00;;;5.80;;
4563;SDS011;2294;51.818;8.484;2022-11-20T04:52:18;14.17;;;7.57;;
4563;SDS011;2294;51.818;8.484;2022-11-20T04:54:46;12.70;;;7.10;;
4563;SDS011;2294;51.818;8.484;2022-11-20T04:57:14;9.47;;;6.67;;
4563;SDS011;2294;51.818;8.484;2022-11-20T04:59:41;12.03;;;6.87;;
4563;SDS011;2294;51.818;8.484;2022-11-20T05:02:08;9.70;;;5.83;;
4563;SDS011;2294;51.818;8.484;2022-11-20T05:04:35;11.87;;;7.07;;
4563;SDS011;2294;51.818;8.484;2022-11-20T05:07:02;11.20;;;6.33;;
4563;SDS011;2294;51.818;8.484;2022-11-20T05:09:29;10.33;;;6.33;;
4563;SDS011;2294;51.818;8.484;2022-11-20T05:11:58;10.00;;;7.10;;
4563;SDS011;2294;51.818;8.484;2022-11-20T05:14:25;10.40;;;5.90;;
4563;SDS011;2294;51.818;8.484;2022-11-20T05:16:52;11.53;;;6.70;;
4563;SDS011;2294;51.818;8.484;2022-11-20T05:19:19;12.87;;;6.73;;
4563;SDS011;2294;51.818;8.484;2022-11-20T05:21:46;13.97;;;7.90;;
4563;SDS011;2294;51.818;8.484;2022-11-20T05:24:12;16.60;;;9.03;;
4563;SDS011;2294;51.818;8.484;2022-11-20T05:26:39;12.37;;;7.63;;
4563;SDS011;2294;51.818;8.484;2022-11-20T05:29:09;22.47;;;9.20;;
4563;SDS011;2294;51.818;8.484;2022-11-20T05:31:36;15.47;;;7.83;;
4563;SDS011;2294;51.818;8.484;2022-11-20T05:34:05;12.10;;;6.60;;
4563;SDS011;2294;51.818;8.484;2022-11-20T05:36:32;20.00;;;6.10;;
4563;SDS011;2294;51.818;8.484;2022-11-20T05:38:59;11.27;;;7.87;;
4563;SDS011;2294;51.818;8.484;2022-11-20T05:41:26;11.90;;;6.80;;
4563;SDS011;2294;51.818;8.484;2022-11-20T05:43:53;11.93;;;6.70;;
4563;SDS011;2294;51.818;8.484;2022-11-20T05:46:23;7.43;;;5.97;;
4563;SDS011;2294;51.818;8.484;2022-11-20T05:48:50;10.00;;;6.37;;
4563;SDS011;2294;51.818;8.484;2022-11-20T05:51:17;9.10;;;6.03;;
4563;SDS011;2294;51.818;8.484;2022-11-20T05:53:45;13.13;;;7.00;;
4563;SDS011;2294;51.818;8.484;2022-11-20T05:56:13;13.43;;;6.43;;
4563;SDS011;2294;51.818;8.484;2022-11-20T05:58:42;8.40;;;5.30;;
4563;SDS011;2294;51.818;8.484;2022-11-20T06:01:09;8.47;;;5.87;;
4563;SDS011;2294;51.818;8.484;2022-11-20T06:03:39;9.87;;;6.27;;
4563;SDS011;2294;51.818;8.484;2022-11-20T06:06:11;10.63;;;6.30;;
4563;SDS011;2294;51.818;8.484;2022-11-20T06:08:38;10.00;;;5.77;;
4563;SDS011;2294;51.818;8.484;2022-11-20T06:11:05;11.17;;;7.10;;
4563;SDS011;2294;51.818;8.484;2022-11-20T06:13:33;8.23;;;5.60;;
4563;SDS011;2294;51.818;8.484;2022-11-20T06:16:00;14.57;;;6.10;;
4563;SDS011;2294;51.818;8.484;2022-11-20T06:18:28;10.57;;;6.00;;
4563;SDS011;2294;51.818;8.484;2022-11-20T06:21:01;12.70;;;7.13;;
4563;SDS011;2294;51.818;8.484;2022-11-20T06:23:29;11.73;;;5.53;;
4563;SDS011;2294;51.818;8.484;2022-11-20T06:25:58;7.37;;;5.00;;
4563;SDS011;2294;51.818;8.484;2022-11-20T06:28:27;10.90;;;6.30;;
4563;SDS011;2294;51.818;8.484;2022-11-20T06:30:54;9.80;;;6.13;;
4563;SDS011;2294;51.818;8.484;2022-11-20T06:33:21;11.03;;;6.20;;
4563;SDS011;2294;51.818;8.484;2022-11-20T06:35:48;10.17;;;6.10;;
4563;SDS011;2294;51.818;8.484;2022-11-20T06:38:17;12.57;;;6.60;;
4563;SDS011;2294;51.818;8.484;2022-11-20T06:40:44;8.80;;;5.50;;
4563;SDS011;2294;51.818;8.484;2022-11-20T06:43:10;9.37;;;5.40;;
4563;SDS011;2294;51.818;8.484;2022-11-20T06:45:37;16.47;;;6.67;;
4563;SDS011;2294;51.818;8.484;2022-11-20T06:48:04;8.70;;;5.57;;
4563;SDS011;2294;51.818;8.484;2022-11-20T06:50:31;9.50;;;5.10;;
4563;SDS011;2294;51.818;8.484;2022-11-20T06:53:00;11.57;;;6.30;;
4563;SDS011;2294;51.818;8.484;2022-11-20T06:55:29;13.20;;;6.07;;
4563;SDS011;2294;51.818;8.484;2022-11-20T06:57:57;11.63;;;6.40;;
4563;SDS011;2294;51.818;8.484;2022-11-20T07:00:24;9.40;;;6.27;;
4563;SDS011;2294;51.818;8.484;2022-11-20T07:02:51;6.80;;;5.10;;
4563;SDS011;2294;51.818;8.484;2022-11-20T07:05:18;13.20;;;6.10;;
4563;SDS011;2294;51.818;8.484;2022-11-20T07:07:44;8.70;;;5.90;;
4563;SDS011;2294;51.818;8.484;2022-11-20T07:12:40;12.10;;;6.37;;
4563;SDS011;2294;51.818;8.484;2022-11-20T07:15:07;13.63;;;6.30;;
4563;SDS011;2294;51.818;8.484;2022-11-20T07:17:34;14.10;;;7.03;;
4563;SDS011;2294;51.818;8.484;2022-11-20T07:20:01;11.93;;;6.57;;
4563;SDS011;2294;51.818;8.484;2022-11-20T07:22:28;10.47;;;6.47;;
4563;SDS011;2294;51.818;8.484;2022-11-20T07:24:55;12.47;;;7.47;;
4563;SDS011;2294;51.818;8.484;2022-11-20T07:27:22;22.10;;;9.50;;
4563;SDS011;2294;51.818;8.484;2022-11-20T07:29:50;21.37;;;9.80;;
4563;SDS011;2294;51.818;8.484;2022-11-20T07:32:17;34.93;;;14.23;;
4563;SDS011;2294;51.818;8.484;2022-11-20T07:34:44;35.53;;;14.00;;
4563;SDS011;2294;51.818;8.484;2022-11-20T07:37:11;21.50;;;9.87;;
4563;SDS011;2294;51.818;8.484;2022-11-20T07:39:38;23.00;;;11.67;;
4563;SDS011;2294;51.818;8.484;2022-11-20T07:42:05;16.57;;;8.10;;
4563;SDS011;2294;51.818;8.484;2022-11-20T07:44:33;17.63;;;9.63;;
4563;SDS011;2294;51.818;8.484;2022-11-20T07:47:02;12.83;;;8.10;;
4563;SDS011;2294;51.818;8.484;2022-11-20T07:49:29;16.13;;;8.70;;
4563;SDS011;2294;51.818;8.484;2022-11-20T07:51:56;13.30;;;8.70;;
4563;SDS011;2294;51.818;8.484;2022-11-20T07:54:23;16.00;;;8.57;;
4563;SDS011;2294;51.818;8.484;2022-11-20T07:56:50;20.03;;;10.00;;
4563;SDS011;2294;51.818;8.484;2022-11-20T07:59:17;13.60;;;8.70;;
4563;SDS011;2294;51.818;8.484;2022-11-20T08:01:44;13.30;;;8.90;;
4563;SDS011;2294;51.818;8.484;2022-11-20T08:04:12;23.30;;;9.80;;
4563;SDS011;2294;51.818;8.484;2022-11-20T08:06:41;29.90;;;12.03;;
4563;SDS011;2294;51.818;8.484;2022-11-20T08:09:08;34.57;;;12.20;;
4563;SDS011;2294;51.818;8.484;2022-11-20T08:11:34;30.07;;;12.97;;
4563;SDS011;2294;51.818;8.484;2022-11-20T08:14:19;20.60;;;10.20;;
4563;SDS011;2294;51.818;8.484;2022-11-20T08:16:46;21.13;;;10.50;;
4563;SDS011;2294;51.818;8.484;2022-11-20T08:19:16;17.87;;;9.87;;
4563;SDS011;2294;51.818;8.484;2022-11-20T08:21:44;14.63;;;8.47;;
4563;SDS011;2294;51.818;8.484;2022-11-20T08:24:11;17.70;;;8.90;;
4563;SDS011;2294;51.818;8.484;2022-11-20T08:26:38;14.20;;;9.10;;
4563;SDS011;2294;51.818;8.484;2022-11-20T08:29:06;15.03;;;8.33;;
4563;SDS011;2294;51.818;8.484;2022-11-20T08:31:33;18.10;;;9.70;;
4563;SDS011;2294;51.818;8.484;2022-11-20T08:34:00;14.77;;;8.20;;
4563;SDS011;2294;51.818;8.484;2022-11-20T08:36:28;14.87;;;8.27;;
4563;SDS011;2294;51.818;8.484;2022-11-20T08:38:58;11.67;;;7.87;;
4563;SDS011;2294;51.818;8.484;2022-11-20T08:41:25;12.77;;;7.40;;
4563;SDS011;2294;51.818;8.484;2022-11-20T08:43:53;40.37;;;15.80;;
4563;SDS011;2294;51.818;8.484;2022-11-20T08:46:22;30.90;;;11.33;;
4563;SDS011;2294;51.818;8.484;2022-11-20T08:48:50;15.47;;;9.63;;
4563;SDS011;2294;51.818;8.484;2022-11-20T08:51:17;14.47;;;8.40;;
4563;SDS011;2294;51.818;8.484;2022-11-20T08:53:46;14.93;;;9.03;;
4563;SDS011;2294;51.818;8.484;2022-11-20T08:56:14;12.17;;;8.23;;
4563;SDS011;2294;51.818;8.484;2022-11-20T08:58:41;14.13;;;8.97;;
4563;SDS011;2294;51.818;8.484;2022-11-20T09:01:09;12.77;;;7.07;;
4563;SDS011;2294;51.818;8.484;2022-11-20T09:03:36;15.97;;;8.90;;
4563;SDS011;2294;51.818;8.484;2022-11-20T09:06:03;10.37;;;7.10;;
4563;SDS011;2294;51.818;8.484;2022-11-20T09:08:32;11.67;;;7.30;;
4563;SDS011;2294;51.818;8.484;2022-11-20T09:11:02;14.00;;;9.53;;
4563;SDS011;2294;51.818;8.484;2022-11-20T09:13:30;16.10;;;8.53;;
4563;SDS011;2294;51.818;8.484;2022-11-20T09:15:59;14.80;;;8.47;;
4563;SDS011;2294;51.818;8.484;2022-11-20T09:18:27;14.70;;;8.60;;
4563;SDS011;2294;51.818;8.484;2022-11-20T09:20:56;14.63;;;8.57;;
4563;SDS011;2294;51.818;8.484;2022-11-20T09:23:24;15.87;;;9.70;;
4563;SDS011;2294;51.818;8.484;2022-11-20T09:25:51;15.10;;;8.47;;
4563;SDS011;2294;51.818;8.484;2022-11-20T09:28:21;14.93;;;8.60;;
4563;SDS011;2294;51.818;8.484;2022-11-20T09:30:48;15.00;;;8.57;;
4563;SDS011;2294;51.818;8.484;2022-11-20T09:33:15;13.70;;;8.00;;
4563;SDS011;2294;51.818;8.484;2022-11-20T09:35:42;17.67;;;9.07;;
4563;SDS011;2294;51.818;8.484;2022-11-20T09:38:09;15.13;;;8.43;;
4563;SDS011;2294;51.818;8.484;2022-11-20T09:40:38;19.43;;;8.13;;
4563;SDS011;2294;51.818;8.484;2022-11-20T09:43:10;17.03;;;8.37;;
4563;SDS011;2294;51.818;8.484;2022-11-20T09:45:50;18.90;;;10.03;;
4563;SDS011;2294;51.818;8.484;2022-11-20T09:48:32;15.17;;;8.57;;
4563;SDS011;2294;51.818;8.484;2022-11-20T09:51:10;14.20;;;7.80;;
4563;SDS011;2294;51.818;8.484;2022-11-20T09:53:50;13.17;;;7.47;;
4563;SDS011;2294;51.818;8.484;2022-11-20T09:56:24;13.50;;;8.97;;
4563;SDS011;2294;51.818;8.484;2022-11-20T09:58:52;16.27;;;9.27;;
4563;SDS011;2294;51.818;8.484;2022-11-20T10:01:23;18.43;;;9.07;;
4563;SDS011;2294;51.818;8.484;2022-11-20T10:03:56;14.80;;;8.30;;
4563;SDS011;2294;51.818;8.484;2022-11-20T10:06:28;14.13;;;7.90;;
4563;SDS011;2294;51.818;8.484;2022-11-20T10:08:59;16.60;;;8.77;;
4563;SDS011;2294;51.818;8.484;2022-11-20T10:11:35;18.47;;;8.27;;
4563;SDS011;2294;51.818;8.484;2022-11-20T10:14:16;18.97;;;9.97;;
4563;SDS011;2294;51.818;8.484;2022-11-20T10:16:56;15.70;;;9.63;;
4563;SDS011;2294;51.818;8.484;2022-11-20T10:19:33;20.10;;;10.30;;
4563;SDS011;2294;51.818;8.484;2022-11-20T10:22:15;19.97;;;10.70;;
4563;SDS011;2294;51.818;8.484;2022-11-20T10:24:53;19.70;;;10.27;;
4563;SDS011;2294;51.818;8.484;2022-11-20T10:27:36;21.50;;;10.90;;
4563;SDS011;2294;51.818;8.484;2022-11-20T10:30:21;17.40;;;9.10;;
4563;SDS011;2294;51.818;8.484;2022-11-20T10:32:52;19.13;;;10.53;;
4563;SDS011;2294;51.818;8.484;2022-11-20T10:35:23;17.70;;;8.70;;
4563;SDS011;2294;51.818;8.484;2022-11-20T10:37:55;13.87;;;9.23;;
4563;SDS011;2294;51.818;8.484;2022-11-20T10:40:27;17.80;;;9.40;;
4563;SDS011;2294;51.818;8.484;2022-11-20T10:42:59;16.43;;;9.40;;
4563;SDS011;2294;51.818;8.484;2022-11-20T10:45:44;20.83;;;9.43;;
4563;SDS011;2294;51.818;8.484;2022-11-20T10:48:19;16.60;;;9.80;;
4563;SDS011;2294;51.818;8.484;2022-11-20T10:50:56;20.40;;;11.47;;
4563;SDS011;2294;51.818;8.484;2022-11-20T10:53:52;18.77;;;10.00;;
4563;SDS011;2294;51.818;8.484;2022-11-20T10:56:25;20.30;;;10.43;;
4563;SDS011;2294;51.818;8.484;2022-11-20T10:59:08;13.80;;;9.03;;
4563;SDS011;2294;51.818;8.484;2022-11-20T11:01:51;21.53;;;10.70;;
4563;SDS011;2294;51.818;8.484;2022-11-20T11:04:22;18.17;;;10.67;;
4563;SDS011;2294;51.818;8.484;2022-11-20T11:06:56;17.63;;;10.07;;
4563;SDS011;2294;51.818;8.484;2022-11-20T11:09:32;23.43;;;11.07;;
4563;SDS011;2294;51.818;8.484;2022-11-20T11:12:05;18.77;;;10.00;;
4563;SDS011;2294;51.818;8.484;2022-11-20T11:14:41;17.47;;;9.57;;
4563;SDS011;2294;51.818;8.484;2022-11-20T11:17:17;21.40;;;10.97;;
4563;SDS011;2294;51.818;8.484;2022-11-20T11:19:57;16.87;;;9.63;;
4563;SDS011;2294;51.818;8.484;2022-11-20T11:22:25;19.77;;;11.30;;
4563;SDS011;2294;51.818;8.484;2022-11-20T11:24:55;17.80;;;10.57;;
4563;SDS011;2294;51.818;8.484;2022-11-20T11:27:22;22.97;;;10.60;;
4563;SDS011;2294;51.818;8.484;2022-11-20T11:29:49;22.50;;;11.23;;
4563;SDS011;2294;51.818;8.484;2022-11-20T11:32:27;20.53;;;10.97;;
4563;SDS011;2294;51.818;8.484;2022-11-20T11:34:59;22.30;;;12.50;;
4563;SDS011;2294;51.818;8.484;2022-11-20T11:37:28;22.77;;;12.70;;
4563;SDS011;2294;51.818;8.484;2022-11-20T11:40:00;24.43;;;12.30;;
4563;SDS011;2294;51.818;8.484;2022-11-20T11:42:28;21.40;;;11.80;;
4563;SDS011;2294;51.818;8.484;2022-11-20T11:44:56;23.13;;;13.13;;
4563;SDS011;2294;51.818;8.484;2022-11-20T11:47:31;21.63;;;11.97;;
4563;SDS011;2294;51.818;8.484;2022-11-20T11:50:15;22.17;;;11.90;;
4563;SDS011;2294;51.818;8.484;2022-11-20T11:52:45;22.00;;;10.90;;
4563;SDS011;2294;51.818;8.484;2022-11-20T11:55:19;17.90;;;10.37;;
4563;SDS011;2294;51.818;8.484;2022-11-20T11:57:54;22.20;;;10.80;;
4563;SDS011;2294;51.818;8.484;2022-11-20T12:00:28;23.40;;;11.30;;
4563;SDS011;2294;51.818;8.484;2022-11-20T12:02:57;24.97;;;13.67;;
4563;SDS011;2294;51.818;8.484;2022-11-20T12:05:35;23.60;;;12.17;;
4563;SDS011;2294;51.818;8.484;2022-11-20T12:08:06;26.87;;;12.53;;
4563;SDS011;2294;51.818;8.484;2022-11-20T12:10:48;20.43;;;11.60;;
4563;SDS011;2294;51.818;8.484;2022-11-20T12:13:26;21.60;;;11.80;;
4563;SDS011;2294;51.818;8.484;2022-11-20T12:16:04;19.17;;;11.50;;
4563;SDS011;2294;51.818;8.484;2022-11-20T12:18:31;21.20;;;11.13;;
4563;SDS011;2294;51.818;8.484;2022-11-20T12:21:05;28.23;;;12.53;;
4563;SDS011;2294;51.818;8.484;2022-11-20T12:23:47;22.30;;;11.40;;
4563;SDS011;2294;51.818;8.484;2022-11-20T12:26:30;23.30;;;11.67;;
4563;SDS011;2294;51.818;8.484;2022-11-20T12:29:09;23.30;;;11.40;;
4563;SDS011;2294;51.818;8.484;2022-11-20T12:31:47;26.10;;;11.13;;
4563;SDS011;2294;51.818;8.484;2022-11-20T12:34:37;23.60;;;12.30;;
4563;SDS011;2294;51.818;8.484;2022-11-20T12:37:15;23.80;;;12.80;;
4563;SDS011;2294;51.818;8.484;2022-11-20T12:40:02;19.83;;;10.17;;
4563;SDS011;2294;51.818;8.484;2022-11-20T12:42:46;23.53;;;11.93;;
4563;SDS011;2294;51.818;8.484;2022-11-20T12:45:46;23.67;;;12.13;;
4563;SDS011;2294;51.818;8.484;2022-11-20T12:48:42;22.20;;;13.10;;
4563;SDS011;2294;51.818;8.484;2022-11-20T12:51:36;17.57;;;10.70;;
4563;SDS011;2294;51.818;8.484;2022-11-20T12:54:36;23.30;;;11.90;;
4563;SDS011;2294;51.818;8.484;2022-11-20T12:57:28;19.47;;;11.43;;
4563;SDS011;2294;51.818;8.484;2022-11-20T13:00:02;21.50;;;11.10;;
4563;SDS011;2294;51.818;8.484;2022-11-20T13:02:44;23.97;;;11.97;;
4563;SDS011;2294;51.818;8.484;2022-11-20T13:05:37;23.23;;;14.13;;
4563;SDS011;2294;51.818;8.484;2022-11-20T13:08:15;25.97;;;13.83;;
4563;SDS011;2294;51.818;8.484;2022-11-20T13:10:49;22.70;;;13.80;;
4563;SDS011;2294;51.818;8.484;2022-11-20T13:13:22;20.13;;;12.53;;
4563;SDS011;2294;51.818;8.484;2022-11-20T13:15:55;23.00;;;12.90;;
4563;SDS011;2294;51.818;8.484;2022-11-20T13:18:27;23.33;;;13.57;;
4563;SDS011;2294;51.818;8.484;2022-11-20T13:21:00;21.33;;;13.37;;
4563;SDS011;2294;51.818;8.484;2022-11-20T13:23:27;21.10;;;12.80;;
4563;SDS011;2294;51.818;8.484;2022-11-20T13:26:06;22.50;;;12.93;;
4563;SDS011;2294;51.818;8.484;2022-11-20T13:28:41;21.57;;;11.10;;
4563;SDS011;2294;51.818;8.484;2022-11-20T13:31:09;24.90;;;12.67;;
4563;SDS011;2294;51.818;8.484;2022-11-20T13:33:50;19.43;;;10.90;;
4563;SDS011;2294;51.818;8.484;2022-11-20T13:36:21;18.50;;;11.10;;
4563;SDS011;2294;51.818;8.484;2022-11-20T13:38:51;17.97;;;10.57;;
4563;SDS011;2294;51.818;8.484;2022-11-20T13:41:25;18.33;;;9.80;;
4563;SDS011;2294;51.818;8.484;2022-11-20T13:44:04;18.87;;;10.90;;
4563;SDS011;2294;51.818;8.484;2022-11-20T13:46:36;22.80;;;12.93;;
4563;SDS011;2294;51.818;8.484;2022-11-20T13:49:06;25.00;;;13.80;;
4563;SDS011;2294;51.818;8.484;2022-11-20T13:51:37;23.13;;;11.87;;
4563;SDS011;2294;51.818;8.484;2022-11-20T13:57:11;17.60;;;10.10;;
4563;SDS011;2294;51.818;8.484;2022-11-20T13:59:53;19.33;;;11.03;;
4563;SDS011;2294;51.818;8.484;2022-11-20T14:02:25;22.47;;;10.80;;
4563;SDS011;2294;51.818;8.484;2022-11-20T14:04:56;21.50;;;12.67;;
4563;SDS011;2294;51.818;8.484;2022-11-20T14:07:32;18.67;;;12.40;;
4563;SDS011;2294;51.818;8.484;2022-11-20T14:10:03;20.83;;;12.50;;
4563;SDS011;2294;51.818;8.484;2022-11-20T14:12:33;19.80;;;12.33;;
4563;SDS011;2294;51.818;8.484;2022-11-20T14:15:02;19.83;;;11.47;;
4563;SDS011;2294;51.818;8.484;2022-11-20T14:17:30;21.80;;;12.73;;
4563;SDS011;2294;51.818;8.484;2022-11-20T14:19:59;21.63;;;11.93;;
4563;SDS011;2294;51.818;8.484;2022-11-20T14:22:28;19.83;;;11.13;;
4563;SDS011;2294;51.818;8.484;2022-11-20T14:25:02;20.23;;;12.87;;
4563;SDS011;2294;51.818;8.484;2022-11-20T14:27:34;16.70;;;10.37;;
4563;SDS011;2294;51.818;8.484;2022-11-20T14:30:04;20.57;;;11.60;;
4563;SDS011;2294;51.818;8.484;2022-11-20T14:32:31;19.23;;;11.80;;
4563;SDS011;2294;51.818;8.484;2022-11-20T14:35:02;22.50;;;11.70;;
4563;SDS011;2294;51.818;8.484;2022-11-20T14:37:36;19.40;;;11.87;;
4563;SDS011;2294;51.818;8.484;2022-11-20T14:40:20;23.20;;;12.50;;
4563;SDS011;2294;51.818;8.484;2022-11-20T14:42:51;41.53;;;14.00;;
4563;SDS011;2294;51.818;8.484;2022-11-20T14:45:18;21.87;;;13.60;;
4563;SDS011;2294;51.818;8.484;2022-11-20T14:47:46;26.90;;;14.10;;
4563;SDS011;2294;51.818;8.484;2022-11-20T14:50:16;23.20;;;13.10;;
4563;SDS011;2294;51.818;8.484;2022-11-20T14:52:52;24.33;;;13.40;;
4563;SDS011;2294;51.818;8.484;2022-11-20T14:55:28;22.43;;;13.20;;
4563;SDS011;2294;51.818;8.484;2022-11-20T14:57:58;25.23;;;12.73;;
4563;SDS011;2294;51.818;8.484;2022-11-20T15:00:27;24.00;;;13.77;;
4563;SDS011;2294;51.818;8.484;2022-11-20T15:02:54;28.40;;;14.27;;
4563;SDS011;2294;51.818;8.484;2022-11-20T15:05:22;36.40;;;16.73;;
4563;SDS011;2294;51.818;8.484;2022-11-20T15:07:52;29.87;;;17.73;;
4563;SDS011;2294;51.818;8.484;2022-11-20T15:10:31;27.77;;;16.03;;
4563;SDS011;2294;51.818;8.484;2022-11-20T15:13:01;24.27;;;14.30;;
4563;SDS011;2294;51.818;8.484;2022-11-20T15:15:30;24.90;;;14.03;;
4563;SDS011;2294;51.818;8.484;2022-11-20T15:17:59;23.63;;;14.10;;
4563;SDS011;2294;51.818;8.484;2022-11-20T15:20:27;24.30;;;13.30;;
4563;SDS011;2294;51.818;8.484;2022-11-20T15:22:57;27.97;;;14.67;;
4563;SDS011;2294;51.818;8.484;2022-11-20T15:25:24;31.10;;;16.80;;
4563;SDS011;2294;51.818;8.484;2022-11-20T15:27:51;23.70;;;13.40;;
4563;SDS011;2294;51.818;8.484;2022-11-20T15:30:22;25.10;;;14.00;;